Terminal Aerodrome Forecast
Issued by NWS Paducah, KY

Home | Current Version | Previous Version | Text Only | Print | Product List | Glossary On
Versions: 1 2 3 4 5 6 7 8 9 10 11 12 13 14 15 16 17 18 19 20 21
000
FTUS43 KPAH 300520
TAFPAH
TAF
KPAH 300520Z 3006/3106 15004KT P6SM FEW030 SCT250
     FM301400 19010KT P6SM BKN045
      TEMPO 3021/3101 24005KT -SHRA OVC035
     FM310300 28008KT P6SM BKN008 OVC022=

USA.gov is the U.S. government's official web portal to all federal, state and local government web resources and services.